Time;durP1;ratioP1;P1;durP2;ratioP2;P2;SDS_P1;SDS_P2;PMS_P1;PMS_P2;Temp;Humidity;BMP_temperature;BMP_pressure;BME280_temperature;BME280_humidity;BME280_pressure;Samples;Min_cycle;Max_cycle;Signal;HPM_P1;HPM_P2
2021/06/26 00:00:06;;;;;;;13.38;7.32;;;;;;;25.69;44.67;101573.81;5035905;28;20029;-61
2021/06/26 00:02:32;;;;;;;13.70;7.55;;;;;;;25.65;44.72;101568.97;5053310;28;20059;-61
2021/06/26 00:04:57;;;;;;;13.57;7.00;;;;;;;25.64;44.84;101576.34;5035529;28;20501;-62
2021/06/26 00:07:22;;;;;;;11.77;7.22;;;;;;;25.63;44.82;101577.41;5053518;28;20108;-61
2021/06/26 00:09:48;;;;;;;13.90;6.07;;;;;;;25.60;44.84;101577.00;5053991;28;20036;-61
2021/06/26 00:12:13;;;;;;;10.35;6.25;;;;;;;25.56;44.62;101573.81;5053799;28;20064;-62
2021/06/26 00:14:39;;;;;;;12.27;7.25;;;;;;;25.53;44.93;101576.97;5035493;28;20057;-61
2021/06/26 00:17:04;;;;;;;14.55;7.25;;;;;;;25.50;45.06;101576.53;5053475;28;20021;-61
2021/06/26 00:19:30;;;;;;;15.52;7.47;;;;;;;25.45;44.81;101566.16;5053622;28;20029;-61
2021/06/26 00:21:55;;;;;;;10.45;6.72;;;;;;;25.44;44.90;101568.06;5053521;28;20029;-61
2021/06/26 00:24:21;;;;;;;16.80;7.82;;;;;;;25.46;45.33;101576.09;5053088;28;20071;-62
2021/06/26 00:26:46;;;;;;;14.45;8.70;;;;;;;25.42;44.96;101567.44;5053098;28;20474;-61
2021/06/26 00:29:12;;;;;;;16.40;8.20;;;;;;;25.41;45.28;101571.22;5053052;28;20135;-62
2021/06/26 00:31:37;;;;;;;14.60;8.30;;;;;;;25.37;45.12;101567.22;5053381;28;20054;-61
2021/06/26 00:34:02;;;;;;;12.65;8.60;;;;;;;25.38;45.05;101576.25;5035319;28;20478;-62
2021/06/26 00:36:28;;;;;;;17.27;7.70;;;;;;;25.35;45.23;101568.44;5055417;28;20029;-62
2021/06/26 00:38:53;;;;;;;14.55;8.02;;;;;;;25.37;44.84;101583.69;5056906;28;20036;-61
2021/06/26 00:41:19;;;;;;;10.55;7.28;;;;;;;25.36;44.87;101576.50;5057131;28;20033;-62
2021/06/26 00:43:44;;;;;;;13.45;8.30;;;;;;;25.37;44.93;101575.44;5057070;28;20481;-62
2021/06/26 00:46:09;;;;;;;17.48;8.77;;;;;;;25.36;45.17;101575.63;5056995;28;20541;-61
2021/06/26 00:48:35;;;;;;;13.55;8.05;;;;;;;25.30;45.29;101562.75;5056857;28;20370;-62
2021/06/26 00:51:00;;;;;;;14.98;8.52;;;;;;;25.33;44.76;101567.81;5038925;28;20029;-61
2021/06/26 00:53:26;;;;;;;12.57;7.55;;;;;;;25.31;45.36;101561.69;5056981;28;20021;-62
2021/06/26 00:55:52;;;;;;;11.82;7.93;;;;;;;25.29;45.41;101559.16;5056625;28;20469;-61
2021/06/26 00:58:18;;;;;;;15.95;8.20;;;;;;;25.27;45.63;101560.41;5057053;28;20021;-61
2021/06/26 01:00:43;;;;;;;14.65;8.48;;;;;;;25.24;45.56;101561.69;5056789;28;20029;-61
2021/06/26 01:03:09;;;;;;;18.70;8.82;;;;;;;25.20;45.36;101560.41;5057042;28;20553;-62
2021/06/26 01:05:35;;;;;;;18.95;8.57;;;;;;;25.13;45.30;101548.56;5056642;28;20021;-61
2021/06/26 01:08:00;;;;;;;14.20;7.90;;;;;;;25.13;45.20;101559.53;5056815;28;20036;-61
2021/06/26 01:10:26;;;;;;;13.52;8.43;;;;;;;25.12;46.02;101562.50;5055064;28;20029;-62
2021/06/26 01:12:51;;;;;;;14.40;8.50;;;;;;;25.07;45.71;101556.78;5056960;28;20083;-61
2021/06/26 01:15:17;;;;;;;12.77;8.20;;;;;;;25.08;45.19;101561.22;5056528;28;20056;-62
2021/06/26 01:17:43;;;;;;;13.45;8.32;;;;;;;25.09;45.79;101563.75;5055611;28;20024;-61
2021/06/26 01:20:10;;;;;;;14.90;9.40;;;;;;;25.06;45.67;101557.84;5056398;28;20029;-61
2021/06/26 01:22:42;;;;;;;12.45;8.43;;;;;;;25.08;45.36;101559.31;5056800;28;20433;-61
2021/06/26 01:25:13;;;;;;;12.10;7.63;;;;;;;25.04;45.96;101548.97;5055980;28;20067;-61
2021/06/26 01:27:39;;;;;;;16.13;8.82;;;;;;;25.07;46.21;101554.06;5055913;28;20041;-61
2021/06/26 01:30:05;;;;;;;14.55;8.88;;;;;;;25.06;46.23;101552.34;5054845;28;20107;-62
2021/06/26 01:32:30;;;;;;;15.80;8.10;;;;;;;25.04;45.58;101559.94;5056229;28;20074;-61
2021/06/26 01:34:56;;;;;;;14.15;8.35;;;;;;;25.04;45.92;101565.44;5038298;28;20028;-61
2021/06/26 01:37:21;;;;;;;17.48;9.23;;;;;;;25.02;45.92;101564.78;5055843;28;20021;-62
2021/06/26 01:39:46;;;;;;;18.50;9.13;;;;;;;24.98;45.53;101558.03;5056181;28;20029;-62
2021/06/26 01:42:12;;;;;;;12.27;8.10;;;;;;;25.01;45.94;101554.88;5056314;28;20033;-62
2021/06/26 01:44:37;;;;;;;18.27;9.30;;;;;;;25.01;45.61;101563.09;5055760;28;20071;-61
2021/06/26 01:47:06;;;;;;;15.00;9.00;;;;;;;24.99;45.84;101545.97;5054974;28;20223;-61
2021/06/26 01:49:31;;;;;;;13.82;8.07;;;;;;;24.97;45.87;101542.63;5037668;28;20029;-61
2021/06/26 01:51:57;;;;;;;19.70;9.05;;;;;;;25.02;45.75;101548.31;5056351;28;20051;-61
2021/06/26 01:54:22;;;;;;;21.20;10.20;;;;;;;25.00;46.12;101553.19;5055790;28;20036;-61
2021/06/26 01:56:47;;;;;;;14.20;8.80;;;;;;;24.97;46.32;101546.22;5055506;28;20156;-61
2021/06/26 01:59:13;;;;;;;18.85;9.27;;;;;;;24.93;46.23;101550.41;5055830;28;20416;-61
2021/06/26 02:01:38;;;;;;;13.85;7.90;;;;;;;24.95;45.59;101550.22;5037887;28;20060;-62
2021/06/26 02:04:04;;;;;;;17.98;8.27;;;;;;;24.93;45.62;101557.81;5055670;28;20029;-61
2021/06/26 02:06:29;;;;;;;16.80;8.93;;;;;;;24.92;46.13;101551.47;5055792;28;20040;-62
2021/06/26 02:08:55;;;;;;;15.07;9.25;;;;;;;24.90;46.16;101556.31;5055278;28;20027;-61
2021/06/26 02:11:20;;;;;;;14.48;9.65;;;;;;;24.89;46.46;101552.72;5037350;28;20119;-61
2021/06/26 02:13:45;;;;;;;16.92;9.57;;;;;;;24.87;45.65;101557.53;5037467;28;20029;-61
2021/06/26 02:16:11;;;;;;;20.70;9.35;;;;;;;24.85;46.28;101558.81;5055126;28;20061;-61
2021/06/26 02:18:36;;;;;;;18.75;10.30;;;;;;;24.80;46.36;101553.94;5055642;28;20029;-61
2021/06/26 02:21:02;;;;;;;17.63;9.23;;;;;;;24.79;46.64;101560.47;5055553;28;20028;-61
2021/06/26 02:23:28;;;;;;;17.02;9.48;;;;;;;24.76;46.13;101563.56;5054157;28;20091;-62
2021/06/26 02:25:53;;;;;;;16.75;9.52;;;;;;;24.73;45.79;101553.06;5054750;28;20095;-61
2021/06/26 02:28:19;;;;;;;19.02;10.65;;;;;;;24.71;46.38;101548.81;5037074;28;20029;-62
2021/06/26 02:30:44;;;;;;;18.33;10.88;;;;;;;24.68;46.29;101554.72;5055118;28;20106;-61
2021/06/26 02:33:10;;;;;;;21.08;9.85;;;;;;;24.65;46.39;101553.19;5054777;28;20473;-61
2021/06/26 02:35:35;;;;;;;15.88;9.07;;;;;;;24.60;46.39;101550.22;5054767;28;20032;-61
2021/06/26 02:38:00;;;;;;;16.15;9.23;;;;;;;24.57;45.99;101553.38;5055007;28;20045;-61
2021/06/26 02:40:26;;;;;;;14.93;9.88;;;;;;;24.54;46.65;101552.97;5054931;28;20021;-62
2021/06/26 02:42:51;;;;;;;17.83;9.43;;;;;;;24.50;45.89;101551.66;5054603;28;20079;-61
2021/06/26 02:45:16;;;;;;;18.98;9.63;;;;;;;24.45;46.08;101551.44;5054589;28;20441;-61
2021/06/26 02:47:42;;;;;;;18.38;8.85;;;;;;;24.39;46.73;101550.34;5054589;28;20033;-62
2021/06/26 02:50:09;;;;;;;17.85;9.65;;;;;;;24.36;46.34;101556.22;5055067;28;20074;-61
2021/06/26 02:52:34;;;;;;;18.23;10.32;;;;;;;24.32;46.79;101555.75;5053890;28;20025;-61
2021/06/26 02:55:00;;;;;;;22.20;10.40;;;;;;;24.29;46.04;101552.56;5036588;28;20043;-61
2021/06/26 02:57:25;;;;;;;14.85;9.35;;;;;;;24.27;46.03;101557.41;5054914;28;20366;-61
2021/06/26 02:59:51;;;;;;;15.63;8.93;;;;;;;24.22;47.02;101554.44;5053907;28;20116;-61
2021/06/26 03:02:17;;;;;;;18.70;9.55;;;;;;;24.19;46.92;101557.56;5054594;28;20033;-61
2021/06/26 03:04:42;;;;;;;15.65;9.18;;;;;;;24.13;46.35;101556.47;5036540;28;20039;-61
2021/06/26 03:07:08;;;;;;;20.40;8.43;;;;;;;24.02;46.92;101547.94;5054317;28;20476;-61
2021/06/26 03:09:34;;;;;;;15.02;9.05;;;;;;;24.06;46.16;101565.66;5054999;28;20025;-61
2021/06/26 03:11:59;;;;;;;17.25;9.55;;;;;;;24.01;46.11;101570.91;5054430;28;20036;-61
2021/06/26 03:14:24;;;;;;;18.02;9.65;;;;;;;23.98;46.20;101568.56;5036638;28;20079;-61
2021/06/26 03:16:50;;;;;;;15.60;9.27;;;;;;;23.94;46.74;101559.88;5054015;28;20025;-61
2021/06/26 03:19:15;;;;;;;18.35;9.25;;;;;;;23.91;47.05;101559.44;5054137;28;20028;-61
2021/06/26 03:21:41;;;;;;;14.30;8.70;;;;;;;23.89;46.89;101556.06;5054140;28;20033;-61
2021/06/26 03:24:07;;;;;;;16.58;8.23;;;;;;;23.84;46.91;101558.53;5054089;28;20049;-61
2021/06/26 03:26:34;;;;;;;17.42;9.93;;;;;;;23.76;46.32;101554.03;5019512;28;20036;-61
2021/06/26 03:29:00;;;;;;;20.40;8.57;;;;;;;23.73;47.05;101554.44;5035904;28;20040;-61
2021/06/26 03:31:25;;;;;;;16.00;9.50;;;;;;;23.68;47.17;101557.78;5053979;28;20036;-61
2021/06/26 03:33:51;;;;;;;20.17;9.57;;;;;;;23.65;46.30;101560.91;5035986;28;20409;-61
2021/06/26 03:36:17;;;;;;;19.00;9.88;;;;;;;23.61;46.61;101559.63;5053668;28;20035;-61
2021/06/26 03:38:43;;;;;;;20.65;9.02;;;;;;;23.56;46.90;101562.06;5053956;28;20127;-62
2021/06/26 03:41:08;;;;;;;15.30;8.95;;;;;;;23.52;46.54;101562.66;5052384;28;20028;-61
2021/06/26 03:43:33;;;;;;;17.80;8.27;;;;;;;23.47;47.19;101559.69;5053856;28;20385;-61
2021/06/26 03:45:59;;;;;;;17.50;8.75;;;;;;;23.42;47.33;101562.16;5052391;28;20470;-61
2021/06/26 03:48:24;;;;;;;18.27;8.93;;;;;;;23.40;47.34;101558.75;5053702;28;20474;-61
2021/06/26 03:50:50;;;;;;;13.77;8.60;;;;;;;23.36;46.38;101555.53;5053772;28;20032;-61
2021/06/26 03:53:16;;;;;;;21.02;9.50;;;;;;;23.37;46.61;101565.41;5053787;28;20035;-61
2021/06/26 03:55:51;;;;;;;20.35;9.32;;;;;;;23.35;47.51;101567.50;5053903;28;20025;-61
2021/06/26 03:58:17;;;;;;;17.00;9.27;;;;;;;23.35;46.72;101562.03;5053814;28;20043;-61
2021/06/26 04:00:43;;;;;;;16.58;9.50;;;;;;;23.36;47.68;101563.75;5053773;28;20108;-61
2021/06/26 04:03:08;;;;;;;16.00;9.05;;;;;;;23.37;47.68;101559.09;5053399;28;20053;-61
2021/06/26 04:05:33;;;;;;;17.35;10.10;;;;;;;23.37;47.22;101554.47;5053346;28;20059;-61
2021/06/26 04:07:59;;;;;;;17.30;10.32;;;;;;;23.36;46.77;101558.28;5053846;28;20358;-61
2021/06/26 04:10:26;;;;;;;18.67;9.68;;;;;;;23.36;47.71;101558.28;5053468;28;20381;-61
2021/06/26 04:12:52;;;;;;;20.83;10.80;;;;;;;23.37;47.70;101556.38;5056192;28;20033;-61
2021/06/26 04:15:17;;;;;;;18.92;10.63;;;;;;;23.34;47.84;101548.59;5058215;28;20082;-61
2021/06/26 04:17:43;;;;;;;17.48;9.77;;;;;;;23.34;47.73;101559.53;5057442;28;20079;-61
2021/06/26 04:20:09;;;;;;;14.20;8.57;;;;;;;23.32;47.56;101562.44;5058084;28;20025;-61
2021/06/26 04:22:34;;;;;;;15.00;9.20;;;;;;;23.31;48.01;101565.38;5057593;28;20036;-61
2021/06/26 04:25:00;;;;;;;19.45;10.13;;;;;;;23.31;46.87;101571.66;5036292;28;20057;-61
2021/06/26 04:27:25;;;;;;;15.10;8.65;;;;;;;23.32;46.98;101573.38;5037247;28;20113;-61
2021/06/26 04:29:50;;;;;;;16.77;9.95;;;;;;;23.33;47.03;101564.13;5037271;28;20052;-61
2021/06/26 04:32:16;;;;;;;17.58;9.18;;;;;;;23.36;47.88;101562.91;5035903;28;20021;-62
2021/06/26 04:34:41;;;;;;;17.05;8.52;;;;;;;23.37;47.86;101565.41;5037180;28;20079;-61
2021/06/26 04:37:07;;;;;;;17.80;8.75;;;;;;;23.33;47.96;101555.94;5036261;28;20117;-61
2021/06/26 04:39:33;;;;;;;16.02;9.77;;;;;;;23.36;47.04;101563.75;5037782;28;20036;-61
2021/06/26 04:41:58;;;;;;;20.75;9.02;;;;;;;23.38;48.06;101571.78;5035830;28;20057;-61
2021/06/26 04:44:23;;;;;;;19.17;9.38;;;;;;;23.40;47.06;101573.28;5035705;28;20033;-61
2021/06/26 04:46:49;;;;;;;18.55;9.57;;;;;;;23.43;47.92;101572.03;5037430;28;20091;-61
2021/06/26 04:49:14;;;;;;;17.10;9.45;;;;;;;23.48;48.01;101573.13;5035865;28;20092;-61
2021/06/26 04:51:40;;;;;;;19.85;8.80;;;;;;;23.58;46.98;101568.22;5037103;28;20065;-61
2021/06/26 04:54:05;;;;;;;21.85;10.05;;;;;;;23.67;47.75;101560.72;5037027;28;20037;-61
2021/06/26 04:56:31;;;;;;;19.00;9.30;;;;;;;23.75;47.61;101555.97;5037034;28;20060;-61
2021/06/26 04:58:56;;;;;;;14.25;8.85;;;;;;;23.92;47.03;101563.88;5036735;28;20063;-61
2021/06/26 05:01:22;;;;;;;15.18;9.70;;;;;;;24.06;46.52;101568.41;5035782;28;20029;-61
2021/06/26 05:03:47;;;;;;;14.73;9.27;;;;;;;24.18;47.34;101570.41;5036897;28;20033;-61
2021/06/26 05:06:13;;;;;;;16.90;9.30;;;;;;;24.30;46.81;101567.97;5036776;28;20462;-62
2021/06/26 05:08:38;;;;;;;24.08;9.55;;;;;;;24.42;47.08;101569.09;5036846;28;20025;-61
2021/06/26 05:11:03;;;;;;;21.92;10.77;;;;;;;24.54;46.35;101564.72;5035287;28;20068;-62
2021/06/26 05:13:29;;;;;;;20.40;9.45;;;;;;;24.68;46.36;101571.97;5036370;28;20033;-62
2021/06/26 05:15:55;;;;;;;21.42;10.10;;;;;;;24.76;46.37;101569.06;5036612;28;20033;-62
2021/06/26 05:18:21;;;;;;;16.63;9.05;;;;;;;24.92;46.01;101573.41;5035117;28;20393;-62
2021/06/26 05:20:46;;;;;;;16.50;9.90;;;;;;;25.02;46.66;101578.47;5036616;28;20064;-61
2021/06/26 05:23:17;;;;;;;19.30;9.77;;;;;;;25.14;46.71;101571.34;5034983;28;20033;-61
2021/06/26 05:25:43;;;;;;;16.77;9.10;;;;;;;25.23;46.16;101564.66;5034767;28;20046;-61
2021/06/26 05:28:09;;;;;;;17.85;10.38;;;;;;;25.35;45.92;101562.97;5036629;28;20056;-61
2021/06/26 05:30:35;;;;;;;19.55;10.02;;;;;;;25.51;46.48;101570.84;5034856;28;20036;-61
2021/06/26 05:33:00;;;;;;;18.13;9.50;;;;;;;25.66;45.44;101566.00;5036562;28;20040;-61
2021/06/26 05:35:26;;;;;;;16.80;9.05;;;;;;;25.80;45.74;101575.09;5034813;28;20115;-61
2021/06/26 05:37:51;;;;;;;18.10;9.70;;;;;;;25.94;45.96;101580.38;5035977;28;20017;-61
2021/06/26 05:40:17;;;;;;;20.55;10.73;;;;;;;26.09;45.41;101584.81;5035897;28;20025;-61
2021/06/26 05:42:42;;;;;;;19.38;10.15;;;;;;;26.11;45.53;101575.28;5035863;28;20028;-61
2021/06/26 05:45:08;;;;;;;22.45;10.65;;;;;;;26.10;45.91;101583.75;5035781;28;20025;-61
2021/06/26 05:47:33;;;;;;;24.95;10.85;;;;;;;26.04;45.55;101578.06;5035696;28;20129;-61
2021/06/26 05:49:58;;;;;;;18.52;10.85;;;;;;;26.11;45.62;101574.44;5035838;28;20025;-61
2021/06/26 05:52:24;;;;;;;21.67;11.02;;;;;;;26.32;45.16;101572.34;5035743;28;20467;-62
2021/06/26 05:54:49;;;;;;;16.90;10.27;;;;;;;26.41;45.02;101575.72;5036203;28;20119;-62
2021/06/26 05:57:15;;;;;;;24.02;11.52;;;;;;;26.49;44.93;101572.75;5035643;28;20029;-61
2021/06/26 05:59:41;;;;;;;16.13;9.68;;;;;;;26.74;44.68;101576.47;5035831;28;20032;-62
2021/06/26 06:02:12;;;;;;;19.90;11.30;;;;;;;26.92;44.46;101573.88;5035604;28;20025;-62
2021/06/26 06:04:41;;;;;;;25.40;10.98;;;;;;;27.14;44.71;101572.50;5035551;28;20035;-62
2021/06/26 06:07:10;;;;;;;18.70;10.88;;;;;;;27.26;44.07;101556.16;5035618;28;20033;-61
2021/06/26 06:09:35;;;;;;;19.80;10.70;;;;;;;27.56;44.04;101567.41;5017591;28;20052;-61
2021/06/26 06:12:01;;;;;;;22.00;11.85;;;;;;;27.74;44.11;101567.50;5035613;28;20037;-62
2021/06/26 06:14:26;;;;;;;19.38;11.07;;;;;;;27.96;43.63;101566.03;5034771;28;20025;-61
2021/06/26 06:16:52;;;;;;;20.42;11.15;;;;;;;28.19;43.93;101560.78;5035772;28;20025;-61
2021/06/26 06:19:17;;;;;;;20.48;11.32;;;;;;;28.42;43.46;101564.78;5035368;28;20025;-60
2021/06/26 06:21:42;;;;;;;24.65;13.43;;;;;;;28.60;43.25;101559.25;5035406;28;20037;-61
2021/06/26 06:24:08;;;;;;;21.63;11.20;;;;;;;28.84;42.60;101563.88;5033668;28;20054;-61
2021/06/26 06:26:33;;;;;;;24.20;11.65;;;;;;;29.04;41.95;101558.94;5035275;28;20549;-61
2021/06/26 06:28:59;;;;;;;21.45;12.52;;;;;;;29.26;42.03;101557.38;5035799;28;20037;-62
2021/06/26 06:31:24;;;;;;;21.15;11.13;;;;;;;29.45;42.46;101560.94;5035441;28;20033;-61
2021/06/26 06:33:49;;;;;;;20.75;11.95;;;;;;;29.45;42.22;101556.25;5035004;28;20378;-62
2021/06/26 06:36:15;;;;;;;27.65;12.65;;;;;;;29.31;41.39;101557.50;5033574;28;20032;-62
2021/06/26 06:38:40;;;;;;;16.58;10.50;;;;;;;29.46;41.84;101559.84;5034883;28;20033;-61
2021/06/26 06:41:05;;;;;;;19.40;11.23;;;;;;;29.58;41.06;101554.38;5035063;28;20104;-60
2021/06/26 06:43:31;;;;;;;17.55;11.73;;;;;;;29.77;41.47;101564.25;5035031;28;20482;-62
2021/06/26 06:45:56;;;;;;;21.67;10.68;;;;;;;29.99;41.45;101563.47;5033386;28;20108;-62
2021/06/26 06:48:22;;;;;;;16.13;10.10;;;;;;;30.19;40.77;101560.34;5034928;28;20112;-62
2021/06/26 06:50:47;;;;;;;20.20;11.88;;;;;;;30.42;40.82;101568.69;5034513;28;20474;-62
2021/06/26 06:53:12;;;;;;;18.70;11.15;;;;;;;30.59;39.96;101563.25;5034553;28;20044;-62
2021/06/26 06:55:38;;;;;;;18.33;10.13;;;;;;;30.74;39.97;101565.50;5034747;28;20034;-63
2021/06/26 06:58:03;;;;;;;18.80;11.20;;;;;;;30.93;39.67;101564.28;5034351;28;20109;-62
2021/06/26 07:00:29;;;;;;;18.15;10.48;;;;;;;31.13;39.81;101561.91;5034591;28;20492;-62
2021/06/26 07:02:54;;;;;;;18.52;9.85;;;;;;;31.30;39.09;101567.47;5034536;28;20374;-61
2021/06/26 07:05:19;;;;;;;22.25;10.00;;;;;;;31.45;38.93;101563.09;5033830;28;20127;-62
2021/06/26 07:07:45;;;;;;;16.00;10.00;;;;;;;31.61;38.65;101567.84;5034458;28;20033;-61
2021/06/26 07:10:11;;;;;;;23.15;11.20;;;;;;;31.75;38.27;101565.56;5034221;28;20504;-62
2021/06/26 07:12:36;;;;;;;16.55;9.50;;;;;;;31.85;37.86;101570.47;5034443;28;20037;-62
2021/06/26 07:15:02;;;;;;;22.08;10.70;;;;;;;31.96;37.71;101569.53;5032776;28;20489;-62
2021/06/26 07:17:27;;;;;;;17.60;10.48;;;;;;;32.06;37.14;101564.19;5032798;28;20120;-62
2021/06/26 07:19:53;;;;;;;16.70;10.32;;;;;;;32.18;37.11;101559.38;5034888;28;20064;-62
2021/06/26 07:22:18;;;;;;;23.30;10.70;;;;;;;32.33;37.25;101564.31;5034326;28;20025;-62
2021/06/26 07:24:44;;;;;;;16.48;10.23;;;;;;;32.44;37.43;101561.41;5042436;28;20056;-63
2021/06/26 07:27:10;;;;;;;17.35;10.73;;;;;;;32.56;37.30;101559.41;5035973;28;20052;-62
2021/06/26 07:29:35;;;;;;;16.20;10.43;;;;;;;32.70;37.06;101560.72;5052928;28;20393;-62
2021/06/26 07:32:01;;;;;;;15.98;9.80;;;;;;;32.82;35.74;101555.88;5054050;28;20025;-62
2021/06/26 07:34:26;;;;;;;15.93;10.20;;;;;;;32.93;35.63;101558.78;5053994;28;20060;-62
2021/06/26 07:36:52;;;;;;;15.27;10.07;;;;;;;33.03;35.55;101556.94;5054213;28;20021;-62
2021/06/26 07:39:17;;;;;;;14.10;9.27;;;;;;;33.16;35.79;101561.31;5053689;28;20432;-62
2021/06/26 07:41:42;;;;;;;16.00;10.68;;;;;;;33.33;35.24;101559.28;5053822;28;20466;-62
2021/06/26 07:44:08;;;;;;;19.77;11.07;;;;;;;33.51;35.14;101550.53;5036145;28;20104;-59
2021/06/26 07:46:33;;;;;;;15.23;9.98;;;;;;;33.72;35.02;101557.16;5035655;28;20119;-62
2021/06/26 07:48:58;;;;;;;15.43;9.02;;;;;;;33.82;34.95;101552.53;5053827;28;20033;-62
2021/06/26 07:51:24;;;;;;;16.85;10.27;;;;;;;33.64;34.96;101550.13;5052249;28;20036;-62
2021/06/26 07:53:49;;;;;;;16.95;10.07;;;;;;;33.65;34.64;101546.25;5053509;28;20195;-62
2021/06/26 07:56:15;;;;;;;17.27;10.23;;;;;;;33.82;35.68;101546.97;5053683;28;20028;-62
2021/06/26 07:58:40;;;;;;;16.13;9.77;;;;;;;33.93;34.38;101553.44;5053389;28;20048;-63
2021/06/26 08:01:06;;;;;;;12.63;7.68;;;;;;;33.96;35.22;101550.97;5053597;28;20033;-62
2021/06/26 08:03:31;;;;;;;14.30;8.93;;;;;;;34.15;34.69;101545.00;5035856;28;20087;-59
2021/06/26 08:05:56;;;;;;;12.23;8.05;;;;;;;34.45;33.99;101550.78;5053611;28;20430;-59
2021/06/26 08:08:22;;;;;;;11.60;6.10;;;;;;;34.70;34.08;101548.16;5053509;28;20033;-59
2021/06/26 08:10:48;;;;;;;12.82;6.38;;;;;;;34.94;32.63;101548.50;5053594;28;20033;-59
2021/06/26 08:13:14;;;;;;;8.80;6.68;;;;;;;34.86;33.16;101547.09;5053498;28;20021;-59
2021/06/26 08:15:40;;;;;;;14.60;6.18;;;;;;;34.80;33.40;101542.63;5053607;28;20037;-59
2021/06/26 08:18:07;;;;;;;10.25;6.35;;;;;;;34.66;32.13;101541.44;5053501;28;20100;-59
2021/06/26 08:20:33;;;;;;;11.27;6.35;;;;;;;34.59;32.15;101543.66;5053403;28;20055;-59
2021/06/26 08:22:59;;;;;;;10.75;7.55;;;;;;;34.59;33.01;101540.88;5053359;28;20029;-60
2021/06/26 08:25:25;;;;;;;9.77;5.65;;;;;;;34.63;31.59;101547.56;5035393;28;20437;-60
2021/06/26 08:27:50;;;;;;;9.77;6.10;;;;;;;34.76;32.58;101546.22;5035036;28;20037;-59
2021/06/26 08:30:16;;;;;;;9.20;5.50;;;;;;;34.84;32.34;101548.47;5053383;28;20130;-59
2021/06/26 08:32:44;;;;;;;9.02;5.75;;;;;;;34.97;31.53;101540.44;5053020;28;20020;-59
2021/06/26 08:35:11;;;;;;;10.38;5.97;;;;;;;35.20;31.84;101550.31;5036304;28;20044;-62
2021/06/26 08:37:36;;;;;;;10.13;6.35;;;;;;;35.40;31.04;101546.72;5035880;28;20053;-62
2021/06/26 08:40:03;;;;;;;8.75;5.50;;;;;;;35.67;31.24;101533.38;5053304;28;20048;-59
2021/06/26 08:42:28;;;;;;;10.70;6.38;;;;;;;35.87;30.88;101538.13;5052939;28;20075;-60
2021/06/26 08:44:59;;;;;;;7.43;5.68;;;;;;;35.98;30.31;101535.03;5053253;28;20029;-59
2021/06/26 08:47:24;;;;;;;13.23;6.13;;;;;;;35.97;30.33;101544.50;5053097;28;20378;-60
2021/06/26 08:49:50;;;;;;;11.57;5.78;;;;;;;36.21;30.05;101542.00;5051944;28;20040;-59
2021/06/26 08:52:15;;;;;;;9.50;5.70;;;;;;;36.17;30.35;101546.47;5052832;28;20029;-60
2021/06/26 08:54:40;;;;;;;6.43;4.88;;;;;;;36.26;30.05;101538.38;5053144;28;20033;-60
2021/06/26 08:57:06;;;;;;;6.72;5.05;;;;;;;36.40;29.53;101540.28;5054312;28;20104;-60
2021/06/26 08:59:32;;;;;;;8.50;5.65;;;;;;;36.59;29.52;101537.72;5038727;28;20462;-59
2021/06/26 09:01:57;;;;;;;8.90;5.93;;;;;;;36.88;29.37;101535.09;5056554;28;20058;-60
2021/06/26 09:04:23;;;;;;;8.73;6.10;;;;;;;37.02;28.90;101539.78;5056471;28;20063;-60
2021/06/26 09:06:57;;;;;;;8.82;5.32;;;;;;;37.25;28.67;101538.25;5056396;28;20036;-59
2021/06/26 09:09:36;;;;;;;7.75;5.88;;;;;;;37.49;28.22;101536.44;5055077;28;20029;-60
2021/06/26 09:12:05;;;;;;;10.10;5.50;;;;;;;37.71;28.35;101534.03;5056479;28;20029;-60
2021/06/26 09:14:30;;;;;;;10.27;5.15;;;;;;;37.51;28.50;101538.94;5056784;28;20524;-60
2021/06/26 09:16:56;;;;;;;6.00;4.45;;;;;;;37.03;28.54;101533.06;5022029;28;20033;-59
2021/06/26 09:19:22;;;;;;;9.95;5.43;;;;;;;36.97;28.82;101534.22;5038414;28;20037;-59
2021/06/26 09:22:00;;;;;;;5.93;4.22;;;;;;;36.92;29.18;101537.03;5056510;28;20028;-60
2021/06/26 09:24:40;;;;;;;3.85;3.30;;;;;;;36.70;28.96;101530.97;5056092;28;20059;-59
2021/06/26 09:27:06;;;;;;;3.70;3.22;;;;;;;36.40;28.68;101539.44;5055996;28;20036;-59
2021/06/26 09:29:31;;;;;;;6.28;3.55;;;;;;;36.24;28.51;101540.63;5038598;28;20481;-59
2021/06/26 09:31:59;;;;;;;5.47;4.18;;;;;;;36.25;28.46;101545.91;5056223;28;20035;-60
2021/06/26 09:34:39;;;;;;;4.75;3.50;;;;;;;36.15;28.42;101537.56;5056179;28;20025;-60
2021/06/26 09:37:07;;;;;;;6.35;4.15;;;;;;;35.94;28.67;101553.44;5056108;28;20021;-60
2021/06/26 09:39:34;;;;;;;4.10;3.50;;;;;;;35.66;28.83;101551.22;5054754;28;20029;-60
2021/06/26 09:41:59;;;;;;;6.28;3.35;;;;;;;35.40;28.68;101546.72;5056045;28;20457;-60
2021/06/26 09:44:24;;;;;;;5.00;3.30;;;;;;;35.22;28.81;101559.22;5037845;28;20083;-59
2021/06/26 09:46:52;;;;;;;6.05;3.63;;;;;;;35.12;29.22;101555.56;5055966;28;20114;-60
2021/06/26 09:49:30;;;;;;;4.63;4.00;;;;;;;35.05;29.01;101556.63;5038196;28;20048;-59
2021/06/26 09:51:57;;;;;;;4.32;3.75;;;;;;;35.04;28.49;101546.59;5055852;28;20033;-59
2021/06/26 09:54:26;;;;;;;6.88;3.50;;;;;;;34.94;28.96;101551.28;5055957;28;20029;-59
2021/06/26 09:56:51;;;;;;;8.57;3.70;;;;;;;34.91;28.73;101555.47;5056105;28;20030;-60
2021/06/26 09:59:17;;;;;;;4.38;3.53;;;;;;;35.04;29.39;101554.09;5038058;28;20355;-60
2021/06/26 10:01:45;;;;;;;5.78;3.65;;;;;;;35.15;28.40;101553.06;5055369;28;20032;-60
2021/06/26 10:04:15;;;;;;;5.75;3.53;;;;;;;35.40;28.83;101552.28;5055989;28;20493;-58
2021/06/26 10:06:42;;;;;;;7.18;3.85;;;;;;;35.65;28.86;101549.56;5055580;28;20183;-60
2021/06/26 10:09:07;;;;;;;40.97;38.95;;;;;;;36.30;27.61;101539.44;5054938;28;20027;-59
2021/06/26 10:11:34;;;;;;;1999.90;999.90;;;;;;;37.25;27.24;101532.66;5055572;28;20470;-59
2021/06/26 10:14:01;;;;;;;19.00;18.00;;;;;;;38.25;26.99;101538.56;5055534;28;20512;-60
2021/06/26 10:16:30;;;;;;;6.32;3.55;;;;;;;39.41;24.88;101540.75;5054291;28;20048;-60
2021/06/26 10:19:00;;;;;;;7.32;3.47;;;;;;;40.63;24.71;101523.38;5055650;28;20029;-59
2021/06/26 10:21:27;;;;;;;4.80;4.28;;;;;;;41.33;23.90;101525.78;5055374;28;20079;-60
2021/06/26 10:23:54;;;;;;;4.38;3.50;;;;;;;41.25;23.70;101523.69;5053931;28;20035;-60
2021/06/26 10:26:21;;;;;;;4.75;4.35;;;;;;;41.17;23.70;101527.28;5037288;28;20040;-59
2021/06/26 10:28:54;;;;;;;9.05;4.70;;;;;;;41.07;23.99;101527.53;5037152;28;20456;-59
2021/06/26 10:31:44;;;;;;;6.75;3.95;;;;;;;41.03;24.11;101532.09;5055181;28;20389;-59
2021/06/26 10:34:25;;;;;;;6.22;4.78;;;;;;;40.89;24.49;101525.66;5055424;28;20029;-59
2021/06/26 10:36:52;;;;;;;6.32;4.25;;;;;;;40.92;23.91;101531.50;5053520;28;20064;-59
2021/06/26 10:39:17;;;;;;;13.80;6.10;;;;;;;41.11;24.33;101534.16;5055332;28;20099;-60
2021/06/26 10:41:43;;;;;;;6.68;4.68;;;;;;;41.36;24.04;101530.78;5054697;28;20067;-60
2021/06/26 10:44:08;;;;;;;6.03;5.43;;;;;;;41.60;24.06;101539.72;5037157;28;20106;-60
2021/06/26 10:46:33;;;;;;;5.30;4.85;;;;;;;41.74;23.87;101532.09;5054539;28;20021;-60
2021/06/26 10:49:06;;;;;;;6.40;5.90;;;;;;;41.84;23.41;101531.00;5055003;28;20047;-60
2021/06/26 10:51:40;;;;;;;5.88;3.70;;;;;;;40.91;24.08;101531.81;5036636;28;20033;-60
2021/06/26 10:54:12;;;;;;;4.53;4.13;;;;;;;41.10;23.30;101530.50;5054409;28;20029;-60
2021/06/26 10:56:38;;;;;;;5.57;5.00;;;;;;;41.58;23.33;101533.59;5054699;28;20052;-61
2021/06/26 10:59:17;;;;;;;7.20;4.00;;;;;;;41.96;23.04;101524.78;5053955;28;20067;-60
2021/06/26 11:01:52;;;;;;;4.15;3.67;;;;;;;42.34;23.02;101528.78;5054563;28;20441;-61
2021/06/26 11:04:18;;;;;;;3.47;3.17;;;;;;;42.66;22.83;101519.97;5054500;28;20491;-60
2021/06/26 11:06:43;;;;;;;5.68;3.63;;;;;;;42.78;22.76;101517.34;5054085;28;20033;-60
2021/06/26 11:09:10;;;;;;;5.10;3.58;;;;;;;43.08;22.50;101520.41;5054543;28;20470;-60
2021/06/26 11:11:48;;;;;;;3.80;3.40;;;;;;;43.10;22.15;101518.09;5052980;28;20024;-60